Time;durP1;ratioP1;P1;durP2;ratioP2;P2;SDS_P1;SDS_P2;PMS_P1;PMS_P2;Temp;Humidity;BMP_temperature;BMP_pressure;BME280_temperature;BME280_humidity;BME280_pressure;Samples;Min_cycle;Max_cycle;Signal;HPM_P1;HPM_P2
2023/06/13 00:02:07;;;;;;;9.68;6.38;;;;;;;17.32;71.47;98902.13;5023883;28;20033;-93
2023/06/13 00:04:32;;;;;;;9.13;6.38;;;;;;;17.24;71.75;98908.38;5029387;28;20070;-93
2023/06/13 00:06:58;;;;;;;7.40;6.10;;;;;;;17.16;72.13;98913.53;5030214;28;20058;-93
2023/06/13 00:09:24;;;;;;;7.88;5.90;;;;;;;17.04;72.59;98913.38;5029730;28;20035;-93
2023/06/13 00:11:50;;;;;;;10.52;6.43;;;;;;;17.11;72.25;98913.69;5029164;28;20024;-93
2023/06/13 00:14:16;;;;;;;7.85;6.57;;;;;;;17.08;72.72;98908.91;5029764;28;20020;-93
2023/06/13 00:16:48;;;;;;;6.97;6.13;;;;;;;16.95;73.02;98907.16;5030259;28;20091;-94
2023/06/13 00:19:14;;;;;;;7.63;6.43;;;;;;;16.91;73.10;98901.56;5046479;28;20045;-93
2023/06/13 00:21:40;;;;;;;7.32;6.47;;;;;;;16.87;73.10;98899.78;5028274;28;20028;-94
2023/06/13 00:24:05;;;;;;;9.02;6.95;;;;;;;16.85;73.36;98911.00;5023164;28;20078;-93
2023/06/13 00:26:31;;;;;;;7.70;6.80;;;;;;;16.76;73.34;98897.38;5024996;28;20124;-93
2023/06/13 00:28:56;;;;;;;12.73;7.03;;;;;;;16.83;73.49;98912.44;5018008;28;20043;-94
2023/06/13 00:31:24;;;;;;;9.23;7.20;;;;;;;16.70;73.52;98898.66;5022508;28;20045;-94
2023/06/13 00:33:50;;;;;;;11.68;7.07;;;;;;;16.75;73.63;98903.94;5013878;28;20004;-93
2023/06/13 00:36:20;;;;;;;7.55;6.43;;;;;;;16.83;73.03;98907.00;5023533;28;20078;-93
2023/06/13 00:38:47;;;;;;;9.52;6.90;;;;;;;16.74;73.90;98913.22;5022077;28;20059;-93
2023/06/13 00:41:14;;;;;;;11.25;6.53;;;;;;;16.75;73.94;98909.38;5036718;28;20116;-93
2023/06/13 00:43:39;;;;;;;14.82;7.00;;;;;;;16.59;74.40;98902.81;5029512;28;20099;-93
2023/06/13 00:46:05;;;;;;;10.73;6.93;;;;;;;16.63;73.67;98894.84;5009593;28;20021;-93
2023/06/13 00:48:31;;;;;;;10.25;6.57;;;;;;;16.81;73.70;98906.53;5009376;28;20090;-92
2023/06/13 00:50:57;;;;;;;11.68;6.45;;;;;;;16.76;73.13;98897.38;5009173;28;20549;-93
2023/06/13 00:53:23;;;;;;;7.18;5.72;;;;;;;16.79;73.29;98901.38;5008073;28;20017;-93
2023/06/13 00:55:49;;;;;;;8.48;6.03;;;;;;;16.81;72.53;98887.47;5012882;28;20028;-93
2023/06/13 00:58:15;;;;;;;7.88;5.85;;;;;;;16.90;72.15;98904.59;5024694;28;20115;-93
2023/06/13 01:00:43;;;;;;;7.93;5.63;;;;;;;16.89;71.61;98889.41;5029042;28;20064;-92
2023/06/13 01:03:15;;;;;;;10.30;5.68;;;;;;;16.88;71.38;98885.09;5031001;28;20115;-94
2023/06/13 01:05:44;;;;;;;6.40;5.45;;;;;;;16.86;71.44;98887.34;5047316;28;20025;-93
2023/06/13 01:08:16;;;;;;;7.82;5.78;;;;;;;16.83;71.28;98877.09;5028801;28;20040;-92
2023/06/13 01:10:41;;;;;;;;;;;;;;;16.84;71.33;98889.56;5031168;28;20032;-92
2023/06/13 01:13:08;;;;;;;8.18;5.53;;;;;;;16.88;71.23;98882.38;5080847;28;19898;-93
2023/06/13 01:15:36;;;;;;;6.40;4.57;;;;;;;16.76;71.07;98872.13;5079910;28;20089;-93
2023/06/13 01:18:03;;;;;;;5.85;4.53;;;;;;;16.67;71.14;98871.34;5028764;28;20070;-93
2023/06/13 01:20:28;;;;;;;7.20;4.88;;;;;;;16.80;70.72;98869.56;5027304;28;20395;-92
2023/06/13 01:22:57;;;;;;;7.80;4.65;;;;;;;16.88;70.66;98877.72;5028199;28;20093;-93
2023/06/13 01:25:44;;;;;;;6.35;5.00;;;;;;;16.86;70.51;98879.97;5060834;28;20063;-92
2023/06/13 01:28:13;;;;;;;5.00;4.30;;;;;;;16.81;70.31;98866.56;5059292;28;20033;-92
2023/06/13 01:30:39;;;;;;;6.80;4.82;;;;;;;16.67;70.88;98865.91;5028214;28;20156;-92
2023/06/13 01:33:04;;;;;;;7.10;4.63;;;;;;;16.70;70.90;98866.03;5025885;28;20032;-93
2023/06/13 01:35:30;;;;;;;5.32;4.70;;;;;;;16.72;70.76;98869.22;5023760;28;20031;-93
2023/06/13 01:37:56;;;;;;;10.13;4.72;;;;;;;16.69;71.10;98874.53;5020784;28;20452;-91
2023/06/13 01:40:21;;;;;;;5.72;4.75;;;;;;;16.66;70.85;98870.50;5009106;28;20505;-93
2023/06/13 01:42:47;;;;;;;6.43;4.65;;;;;;;16.62;71.12;98869.59;5007683;28;20020;-93
2023/06/13 01:45:12;;;;;;;7.43;4.60;;;;;;;16.57;71.43;98867.00;5007613;28;20116;-93
2023/06/13 01:47:43;;;;;;;8.48;4.38;;;;;;;16.62;71.21;98866.88;5006349;28;20029;-92
2023/06/13 01:50:32;;;;;;;8.40;4.60;;;;;;;16.52;71.41;98869.91;5040064;28;20123;-92
2023/06/13 01:53:19;;;;;;;8.05;4.95;;;;;;;16.47;71.39;98868.13;5030689;28;20028;-92
2023/06/13 01:56:01;;;;;;;5.53;4.43;;;;;;;16.41;71.94;98863.97;5008682;28;20013;-92
2023/06/13 01:58:42;;;;;;;6.38;4.97;;;;;;;16.40;72.55;98861.59;5009107;28;20123;-93
2023/06/13 02:01:07;;;;;;;6.30;4.80;;;;;;;16.29;72.65;98852.94;5007149;28;20029;-93
2023/06/13 02:03:33;;;;;;;6.97;5.15;;;;;;;16.34;72.53;98861.75;5007749;28;20098;-92
2023/06/13 02:05:58;;;;;;;7.38;4.90;;;;;;;16.43;72.41;98877.25;5008727;28;20048;-92
2023/06/13 02:08:24;;;;;;;6.50;4.80;;;;;;;16.41;71.95;98857.75;5055621;28;20155;-93
2023/06/13 02:10:49;;;;;;;7.63;4.95;;;;;;;16.53;71.72;98876.94;5044739;28;20036;-93
2023/06/13 02:13:15;;;;;;;8.40;5.38;;;;;;;16.27;72.30;98864.16;5007977;28;20029;-92
2023/06/13 02:15:40;;;;;;;7.15;4.75;;;;;;;16.17;72.79;98861.75;5008005;28;20025;-93
2023/06/13 02:18:07;;;;;;;7.65;4.72;;;;;;;16.12;73.03;98865.41;5008052;28;20028;-93
2023/06/13 02:20:33;;;;;;;7.78;5.55;;;;;;;16.22;72.73;98869.72;5007373;28;20029;-92
2023/06/13 02:23:02;;;;;;;6.00;4.85;;;;;;;16.15;73.04;98880.25;5007108;28;20106;-93
2023/06/13 02:25:27;;;;;;;6.68;4.82;;;;;;;16.20;72.74;98869.25;5008786;28;20031;-93
2023/06/13 02:27:53;;;;;;;6.55;5.13;;;;;;;16.28;72.54;98879.31;5007023;28;20024;-93
2023/06/13 02:30:18;;;;;;;6.90;4.70;;;;;;;16.29;72.17;98877.38;5006467;28;20131;-93
2023/06/13 02:32:46;;;;;;;5.45;4.70;;;;;;;16.28;72.23;98881.25;5006636;28;20029;-92
2023/06/13 02:35:12;;;;;;;7.97;4.95;;;;;;;16.31;72.41;98891.44;5007383;28;20024;-92
2023/06/13 02:37:37;;;;;;;9.77;5.13;;;;;;;16.23;72.25;98882.19;5007826;28;20028;-92
2023/06/13 02:40:05;;;;;;;5.93;4.88;;;;;;;16.15;72.84;98893.84;5006661;28;20058;-93
2023/06/13 02:42:30;;;;;;;10.25;5.97;;;;;;;16.21;73.01;98897.19;5007012;28;20025;-93
2023/06/13 02:44:56;;;;;;;6.20;5.07;;;;;;;16.16;72.57;98887.28;5006335;28;20033;-92
2023/06/13 02:47:22;;;;;;;6.20;4.80;;;;;;;16.09;73.46;98893.19;5006797;28;20036;-92
2023/06/13 02:49:48;;;;;;;8.32;5.32;;;;;;;15.90;73.88;98890.75;5006792;28;20032;-93
2023/06/13 02:52:13;;;;;;;8.32;4.82;;;;;;;15.87;73.94;98904.94;5006163;28;20029;-92
2023/06/13 02:54:39;;;;;;;8.00;5.40;;;;;;;15.82;73.76;98891.53;5006441;28;20028;-92
2023/06/13 02:57:06;;;;;;;8.20;5.10;;;;;;;15.81;73.91;98898.06;5007517;28;20029;-92
2023/06/13 02:59:32;;;;;;;8.02;4.95;;;;;;;15.81;73.85;98898.06;5006050;28;20021;-93
2023/06/13 03:01:57;;;;;;;8.73;5.47;;;;;;;15.77;74.46;98899.81;5007375;28;20505;-93
2023/06/13 03:04:23;;;;;;;6.90;5.03;;;;;;;15.61;74.91;98915.69;5006002;28;20059;-92
2023/06/13 03:06:50;;;;;;;8.38;5.30;;;;;;;15.64;75.39;98908.84;5006901;28;20036;-92
2023/06/13 03:09:15;;;;;;;6.05;5.43;;;;;;;15.70;74.98;98910.28;5006319;28;20021;-93
2023/06/13 03:11:41;;;;;;;8.15;5.63;;;;;;;15.67;75.41;98913.66;5006426;28;20067;-93
2023/06/13 03:14:06;;;;;;;7.82;5.28;;;;;;;15.70;75.12;98911.09;5005636;28;20013;-93
2023/06/13 03:16:32;;;;;;;8.38;5.30;;;;;;;15.68;75.17;98913.31;5006799;28;20036;-93
2023/06/13 03:18:58;;;;;;;7.38;5.05;;;;;;;15.72;75.09;98922.47;5006150;28;20040;-92
2023/06/13 03:21:23;;;;;;;10.02;5.55;;;;;;;15.72;74.70;98922.47;5007231;28;20021;-92
2023/06/13 03:23:49;;;;;;;13.68;4.97;;;;;;;15.78;74.47;98906.06;5006863;28;20021;-92
2023/06/13 03:26:16;;;;;;;6.97;5.13;;;;;;;15.81;74.38;98911.63;5006990;28;20013;-93
2023/06/13 03:28:42;;;;;;;11.68;5.18;;;;;;;15.73;74.41;98923.28;5009773;28;20482;-93
2023/06/13 03:31:08;;;;;;;8.32;4.80;;;;;;;15.74;73.91;98903.94;5009312;28;20056;-92
2023/06/13 03:33:33;;;;;;;6.68;4.75;;;;;;;15.90;74.11;98920.63;5010848;28;20055;-93
2023/06/13 03:35:59;;;;;;;7.18;4.80;;;;;;;15.77;74.35;98894.38;5010202;28;20036;-92
2023/06/13 03:38:27;;;;;;;5.22;4.25;;;;;;;15.91;73.97;98903.19;5012298;28;20487;-92
2023/06/13 03:40:52;;;;;;;9.95;5.00;;;;;;;15.91;74.19;98916.78;5033478;28;20404;-94
2023/06/13 03:43:18;;;;;;;5.60;4.50;;;;;;;16.04;73.62;98912.38;5009999;28;20028;-93
2023/06/13 03:45:43;;;;;;;9.57;4.75;;;;;;;15.91;73.49;98900.50;5010313;28;20029;-94
2023/06/13 03:48:09;;;;;;;8.70;4.70;;;;;;;15.85;74.52;98914.53;5010945;28;20032;-93
2023/06/13 03:50:34;;;;;;;7.30;4.85;;;;;;;15.61;74.96;98923.84;5010276;28;20090;-94
2023/06/13 03:53:00;;;;;;;8.23;4.90;;;;;;;15.85;74.92;98922.66;5010634;28;20028;-94
2023/06/13 03:55:25;;;;;;;5.93;4.10;;;;;;;16.02;73.83;98909.16;5009443;28;20028;-94
2023/06/13 03:57:51;;;;;;;8.80;4.75;;;;;;;15.87;74.06;98904.16;5025165;28;20058;-94
2023/06/13 04:00:17;;;;;;;6.72;4.65;;;;;;;15.80;74.64;98901.13;5029505;28;20478;-94
2023/06/13 04:02:44;;;;;;;8.73;5.10;;;;;;;15.90;74.27;98911.69;5037643;28;20024;-94
2023/06/13 04:05:12;;;;;;;8.85;4.40;;;;;;;15.94;74.32;98913.44;5029732;28;20025;-94
2023/06/13 04:07:38;;;;;;;7.28;4.78;;;;;;;16.09;73.37;98922.28;5049917;28;20162;-94
2023/06/13 04:10:04;;;;;;;6.30;4.60;;;;;;;16.10;73.18;98916.53;5049152;28;20432;-93
2023/06/13 04:12:30;;;;;;;7.07;4.72;;;;;;;16.14;72.70;98919.41;5046918;28;20031;-94
2023/06/13 04:14:56;;;;;;;8.45;4.45;;;;;;;16.20;72.79;98923.56;5029202;28;20012;-94
2023/06/13 04:17:21;;;;;;;7.38;4.40;;;;;;;16.45;72.11;98910.34;5033116;28;20118;-94
2023/06/13 04:19:48;;;;;;;8.77;4.32;;;;;;;16.50;71.94;98921.06;5026825;28;20029;-86
2023/06/13 04:22:16;;;;;;;7.07;4.40;;;;;;;16.51;71.88;98923.44;5037216;28;20479;-87
2023/06/13 04:24:42;;;;;;;6.55;3.88;;;;;;;16.49;71.87;98927.59;5060311;28;20143;-86
2023/06/13 04:27:08;;;;;;;8.15;4.70;;;;;;;16.52;71.31;98919.63;5036784;28;20028;-85
2023/06/13 04:29:34;;;;;;;7.15;4.28;;;;;;;16.58;71.85;98914.84;5025427;28;20028;-86
2023/06/13 04:32:03;;;;;;;7.38;4.75;;;;;;;16.76;71.30;98930.00;5019180;28;20052;-87
2023/06/13 04:34:33;;;;;;;8.77;4.75;;;;;;;16.77;71.31;98930.81;5015582;28;20016;-87
2023/06/13 04:37:03;;;;;;;7.07;3.95;;;;;;;17.09;69.65;98926.81;5031815;28;20032;-87
2023/06/13 04:39:28;;;;;;;7.32;4.25;;;;;;;17.17;69.12;98930.63;5007094;28;20029;-87
2023/06/13 04:41:57;;;;;;;9.02;5.40;;;;;;;17.51;68.46;98946.06;5022862;28;20029;-88
2023/06/13 04:44:28;;;;;;;9.18;7.15;;;;;;;17.45;68.30;98927.53;5007446;28;20533;-86
2023/06/13 04:47:01;;;;;;;5.68;3.90;;;;;;;17.60;68.55;98950.69;5024714;28;20033;-87
2023/06/13 04:49:27;;;;;;;5.50;4.13;;;;;;;17.54;68.56;98952.81;5027366;28;20036;-87
2023/06/13 04:51:58;;;;;;;5.43;3.70;;;;;;;17.53;68.71;98945.75;5027219;28;20028;-86
2023/06/13 04:54:25;;;;;;;7.80;4.25;;;;;;;17.58;68.01;98946.38;5020563;28;20025;-86
2023/06/13 04:56:50;;;;;;;4.38;3.65;;;;;;;17.81;67.02;98946.16;5020851;28;20033;-86
2023/06/13 04:59:16;;;;;;;4.95;3.90;;;;;;;17.98;66.21;98946.09;5040739;28;20028;-87
2023/06/13 05:01:43;;;;;;;4.20;3.33;;;;;;;18.13;66.68;98947.44;5024299;28;20434;-86
2023/06/13 05:04:08;;;;;;;6.20;4.07;;;;;;;18.05;67.15;98959.19;5024894;28;20549;-87
2023/06/13 05:06:37;;;;;;;7.20;3.78;;;;;;;18.13;66.80;98955.63;5026364;28;20070;-87
2023/06/13 05:09:06;;;;;;;5.18;3.58;;;;;;;18.19;66.18;98953.50;5028672;28;20043;-89
2023/06/13 05:11:32;;;;;;;5.85;3.80;;;;;;;18.19;65.67;98945.34;5028377;28;20059;-88
2023/06/13 05:13:57;;;;;;;7.07;3.72;;;;;;;18.33;65.47;98947.81;5025946;28;20056;-87
2023/06/13 05:16:26;;;;;;;7.82;3.47;;;;;;;18.42;65.27;98948.56;5019911;28;20024;-86
2023/06/13 05:18:57;;;;;;;5.82;3.78;;;;;;;18.45;65.43;98947.09;5026333;28;20024;-88
2023/06/13 05:21:23;;;;;;;6.13;4.30;;;;;;;18.51;65.69;98954.75;5024954;28;20032;-86
2023/06/13 05:23:48;;;;;;;8.95;3.42;;;;;;;18.60;65.10;98954.69;5026542;28;20348;-88
2023/06/13 05:26:15;;;;;;;5.85;3.58;;;;;;;18.54;64.71;98961.47;5041374;28;20059;-86
2023/06/13 05:28:40;;;;;;;7.07;3.85;;;;;;;18.67;64.70;98954.16;5035824;28;20071;-87
2023/06/13 05:31:06;;;;;;;9.25;3.60;;;;;;;18.87;63.95;98952.59;5010066;28;20044;-87
2023/06/13 05:33:37;;;;;;;5.20;4.00;;;;;;;18.74;64.51;98957.16;5028548;28;20164;-86
2023/06/13 05:36:03;;;;;;;7.72;4.15;;;;;;;18.84;65.08;98951.31;5009243;28;20102;-88
2023/06/13 05:38:32;;;;;;;6.75;3.50;;;;;;;18.98;64.56;98951.03;5031717;28;20043;-87
2023/06/13 05:41:03;;;;;;;5.78;3.50;;;;;;;19.00;63.90;98937.88;5029660;28;20044;-87
2023/06/13 05:43:29;;;;;;;9.10;3.70;;;;;;;18.99;63.64;98955.38;5032613;28;20499;-88
2023/06/13 05:45:55;;;;;;;6.70;4.05;;;;;;;19.04;63.94;98949.69;5040571;28;20043;-88
2023/06/13 05:48:22;;;;;;;4.95;3.65;;;;;;;19.29;64.07;98957.97;5029933;28;20048;-87
2023/06/13 05:50:47;;;;;;;8.00;3.80;;;;;;;19.34;63.54;98961.31;5045627;28;20130;-87
2023/06/13 05:53:13;;;;;;;6.80;3.65;;;;;;;19.42;63.65;98954.13;5041822;28;20021;-90
2023/06/13 05:55:38;;;;;;;17.45;9.63;;;;;;;19.63;63.51;98947.81;5026968;28;20028;-89
2023/06/13 05:58:18;;;;;;;6.40;3.95;;;;;;;19.69;62.92;98927.34;5028111;28;20079;-89
2023/06/13 06:01:03;;;;;;;23.60;9.32;;;;;;;19.99;61.14;98942.41;5040569;28;20414;-90
2023/06/13 06:04:05;;;;;;;5.85;4.38;;;;;;;19.92;62.19;98916.78;5052988;28;20037;-92
2023/06/13 06:06:34;;;;;;;6.43;3.70;;;;;;;20.06;61.38;98927.38;5042824;28;20039;-89
2023/06/13 06:09:11;;;;;;;;;;;;;;;;;;;;;
2023/06/13 06:12:29;;;;;;;6.80;3.60;;;;;;;20.26;59.53;98929.19;5043221;28;20128;-91
2023/06/13 06:15:41;;;;;;;9.07;5.30;;;;;;;20.44;59.66;98929.72;5061016;28;20025;-89
2023/06/13 06:18:10;;;;;;;8.05;3.80;;;;;;;20.53;59.48;98921.38;4988575;28;20045;-90
2023/06/13 06:20:37;;;;;;;13.48;3.70;;;;;;;20.64;59.31;98947.13;5028104;28;20030;-91
2023/06/13 06:23:03;;;;;;;7.18;3.30;;;;;;;20.61;58.80;98919.66;4981982;28;20033;-89
2023/06/13 06:25:31;;;;;;;4.75;3.30;;;;;;;20.83;59.02;98946.50;5009345;28;20052;-90
2023/06/13 06:27:56;;;;;;;6.60;3.60;;;;;;;20.84;57.44;98955.53;4973798;28;20033;-89
2023/06/13 06:30:22;;;;;;;8.02;3.58;;;;;;;20.68;57.45;98939.81;4979177;28;20157;-87
2023/06/13 06:32:49;;;;;;;6.90;3.40;;;;;;;20.77;57.49;98947.88;4993752;28;20073;-86
2023/06/13 06:35:14;;;;;;;6.22;3.70;;;;;;;20.99;57.97;98952.03;4980663;28;20536;-88
2023/06/13 06:37:43;;;;;;;6.22;3.45;;;;;;;21.11;55.85;98940.25;5002466;28;20034;-88
2023/06/13 06:40:12;;;;;;;8.10;4.40;;;;;;;21.19;56.57;98931.09;4973563;28;20093;-89
2023/06/13 06:42:37;;;;;;;3.75;2.75;;;;;;;21.50;54.85;98948.72;4981792;28;20037;-93
2023/06/13 06:45:03;;;;;;;6.22;3.30;;;;;;;21.54;54.97;98952.34;4997054;28;20026;-88
2023/06/13 06:47:29;;;;;;;7.43;3.40;;;;;;;21.58;54.76;98931.31;4979753;28;20029;-90
2023/06/13 06:49:55;;;;;;;9.10;3.90;;;;;;;21.78;55.04;98945.91;4986760;28;20093;-90
2023/06/13 06:52:20;;;;;;;3.70;2.85;;;;;;;21.97;53.04;98961.66;4989433;28;20045;-88
2023/06/13 06:54:46;;;;;;;4.28;2.65;;;;;;;21.84;52.79;98949.19;4993840;28;20523;-88
2023/06/13 06:57:12;;;;;;;5.22;3.40;;;;;;;21.97;52.73;98948.72;4977978;28;20032;-87
2023/06/13 06:59:37;;;;;;;9.98;2.90;;;;;;;21.95;52.38;98920.88;4992895;28;20033;-90
2023/06/13 07:02:04;;;;;;;3.70;3.10;;;;;;;22.02;52.23;98924.94;5016081;28;20080;-87
2023/06/13 07:04:32;;;;;;;4.35;2.90;;;;;;;22.06;53.06;98945.00;5036448;28;20017;-87
2023/06/13 07:06:57;;;;;;;5.65;3.30;;;;;;;22.17;52.58;98938.63;5013319;28;20036;-87
2023/06/13 07:09:23;;;;;;;9.15;3.58;;;;;;;22.26;51.40;98941.19;5016666;28;20029;-88
2023/06/13 07:11:48;;;;;;;4.25;2.80;;;;;;;22.20;52.07;98924.22;5013245;28;20479;-87
2023/06/13 07:14:14;;;;;;;3.63;2.90;;;;;;;22.26;51.49;98922.00;5012605;28;20075;-90
2023/06/13 07:16:39;;;;;;;5.45;3.03;;;;;;;22.52;50.24;98932.38;5019222;28;20017;-88
2023/06/13 07:19:05;;;;;;;6.20;3.20;;;;;;;22.95;50.04;98943.44;5026190;28;20041;-89
2023/06/13 07:21:34;;;;;;;4.63;2.75;;;;;;;23.21;49.83;98937.31;5042491;28;20021;-88
2023/06/13 07:25:15;;;;;;;4.68;2.92;;;;;;;23.16;48.63;98893.69;5028639;28;20016;-89
2023/06/13 07:27:48;;;;;;;6.30;2.90;;;;;;;23.65;47.76;98930.63;4975431;28;20037;-88
2023/06/13 07:30:38;;;;;;;7.20;3.60;;;;;;;23.98;47.91;98930.81;5017620;28;20036;-87
2023/06/13 07:33:07;;;;;;;13.32;3.65;;;;;;;24.05;47.49;98899.88;5038653;28;20076;-91
2023/06/13 07:35:41;;;;;;;4.38;3.10;;;;;;;24.26;46.31;98918.66;5035113;28;20029;-88
2023/06/13 07:38:07;;;;;;;8.48;3.92;;;;;;;24.26;46.28;98902.16;5030540;28;20410;-88
2023/06/13 07:40:37;;;;;;;8.60;4.15;;;;;;;24.46;46.92;98922.06;5029453;28;20026;-88
2023/06/13 07:43:32;;;;;;;5.57;3.13;;;;;;;24.67;47.27;98921.56;5005441;28;20037;-88
2023/06/13 07:46:00;;;;;;;5.28;3.58;;;;;;;24.69;46.37;98893.66;4950496;28;20133;-87
2023/06/13 07:48:26;;;;;;;5.55;3.17;;;;;;;24.90;45.13;98891.19;5004807;28;20030;-87
2023/06/13 07:50:52;;;;;;;4.28;2.72;;;;;;;24.68;44.75;98903.09;5017086;28;20042;-88
2023/06/13 07:53:17;;;;;;;6.60;2.95;;;;;;;24.98;44.99;98903.84;5008163;28;20024;-89
2023/06/13 07:55:48;;;;;;;7.07;2.90;;;;;;;25.19;43.31;98870.22;5010771;28;20056;-89
2023/06/13 07:58:14;;;;;;;4.50;2.92;;;;;;;25.25;44.64;98898.25;5012911;28;20029;-89
2023/06/13 08:00:40;;;;;;;4.80;2.50;;;;;;;25.47;43.59;98902.00;5012588;28;20065;-91
2023/06/13 08:03:05;;;;;;;55.40;40.50;;;;;;;25.71;42.53;98910.84;5000020;28;20116;-90
2023/06/13 08:05:31;;;;;;;8.00;3.80;;;;;;;25.64;41.58;98908.84;4997811;28;20053;-89
2023/06/13 08:07:57;;;;;;;9.13;2.75;;;;;;;25.49;42.73;98912.66;5019650;28;20049;-92
2023/06/13 08:10:23;;;;;;;8.23;3.10;;;;;;;25.50;43.13;98912.25;5030054;28;20037;-91
2023/06/13 08:12:49;;;;;;;4.47;2.90;;;;;;;25.53;43.52;98903.22;5011344;28;20208;-87
2023/06/13 08:15:15;;;;;;;5.03;3.00;;;;;;;25.76;42.97;98905.00;5005173;28;20498;-88
2023/06/13 08:17:43;;;;;;;6.85;3.08;;;;;;;25.71;42.59;98897.88;5004911;28;20028;-88
2023/06/13 08:20:09;;;;;;;4.28;2.63;;;;;;;25.55;42.46;98900.09;5044344;28;20025;-89
2023/06/13 08:22:38;;;;;;;5.18;2.40;;;;;;;25.84;42.17;98911.34;5013482;28;20030;-90
2023/06/13 08:25:08;;;;;;;4.28;2.50;;;;;;;25.77;42.11;98909.31;5004071;28;20029;-89
2023/06/13 08:27:49;;;;;;;4.57;2.80;;;;;;;25.48;42.68;98891.75;5002317;28;20125;-91
2023/06/13 08:30:22;;;;;;;;;;;;;;;25.62;43.91;98905.66;5010628;28;20085;-92
2023/06/13 08:32:55;;;;;;;6.05;2.63;;;;;;;25.50;42.62;98870.13;5024005;28;19913;-91
2023/06/13 08:35:21;;;;;;;6.25;3.03;;;;;;;25.49;42.83;98876.81;5016202;28;20112;-88
2023/06/13 08:37:47;;;;;;;6.18;2.88;;;;;;;25.38;43.37;98869.25;5006938;28;20005;-89
2023/06/13 08:40:15;;;;;;;4.68;3.42;;;;;;;25.48;43.27;98892.53;4996205;28;20044;-89
2023/06/13 08:42:41;;;;;;;9.52;3.17;;;;;;;25.68;42.46;98904.13;5006582;28;20040;-89
2023/06/13 08:45:07;;;;;;;6.30;2.90;;;;;;;25.41;43.13;98887.75;5009433;28;20032;-88
2023/06/13 08:47:35;;;;;;;5.13;2.55;;;;;;;25.37;43.15;98889.69;4997198;28;20086;-89
2023/06/13 08:50:01;;;;;;;10.77;3.10;;;;;;;25.53;42.91;98875.66;4997082;28;20025;-88
2023/06/13 08:52:34;;;;;;;4.57;2.80;;;;;;;25.27;41.97;98871.09;5016179;28;20111;-90
2023/06/13 08:55:06;;;;;;;3.47;2.60;;;;;;;25.41;42.21;98875.94;4992964;28;20186;-89
2023/06/13 08:57:31;;;;;;;4.35;2.53;;;;;;;25.46;42.37;98861.03;5013994;28;20025;-88
2023/06/13 08:59:57;;;;;;;4.30;2.50;;;;;;;25.51;42.50;98858.72;5009980;28;20041;-89
2023/06/13 09:02:26;;;;;;;4.70;2.58;;;;;;;25.95;40.88;98890.97;5010900;28;20419;-89
2023/06/13 09:04:55;;;;;;;5.72;2.63;;;;;;;26.11;40.90;98885.19;5031681;28;20051;-90
2023/06/13 09:07:21;;;;;;;5.53;2.58;;;;;;;26.06;40.40;98880.00;5014853;28;20406;-87
2023/06/13 09:09:47;;;;;;;5.82;3.08;;;;;;;25.70;41.62;98881.72;5028411;28;20035;-89
2023/06/13 09:12:13;;;;;;;8.02;2.63;;;;;;;25.46;41.80;98877.56;5014263;28;20025;-89
2023/06/13 09:14:42;;;;;;;4.97;2.75;;;;;;;25.42;42.93;98855.47;4999531;28;20090;-87
2023/06/13 09:17:08;;;;;;;4.22;2.50;;;;;;;25.63;41.89;98865.91;4999916;28;20033;-88
2023/06/13 09:19:34;;;;;;;4.82;2.50;;;;;;;25.54;41.54;98865.41;5018780;28;20079;-89
2023/06/13 09:21:59;;;;;;;5.82;2.33;;;;;;;25.71;42.17;98856.50;5006598;28;20116;-89
2023/06/13 09:24:36;;;;;;;3.28;2.30;;;;;;;25.92;41.67;98847.63;4995199;28;20057;-89
2023/06/13 09:27:02;;;;;;;4.43;2.17;;;;;;;25.87;41.43;98834.16;5011359;28;20029;-88
2023/06/13 09:29:35;;;;;;;5.47;2.85;;;;;;;25.92;42.18;98839.34;5014543;28;20033;-88
2023/06/13 09:32:03;;;;;;;4.88;3.35;;;;;;;25.86;42.26;98840.03;5014606;28;20149;-90
2023/06/13 09:34:34;;;;;;;4.18;3.15;;;;;;;26.17;42.06;98858.00;5024919;28;20056;-90
2023/06/13 09:36:59;;;;;;;5.85;3.00;;;;;;;26.15;41.37;98844.59;5007665;28;20508;-89
2023/06/13 09:39:26;;;;;;;4.88;2.72;;;;;;;26.07;40.91;98826.41;5005138;28;20420;-89
2023/06/13 09:41:59;;;;;;;4.78;2.50;;;;;;;26.48;39.81;98859.34;5006631;28;20435;-90
2023/06/13 09:44:25;;;;;;;8.52;3.33;;;;;;;26.34;40.09;98832.47;5005660;28;20401;-89
2023/06/13 09:46:52;;;;;;;3.65;2.55;;;;;;;26.51;40.01;98838.44;5006570;28;20060;-89
2023/06/13 09:49:18;;;;;;;7.72;2.92;;;;;;;26.72;40.03;98829.47;5007004;28;20056;-91
2023/06/13 09:51:50;;;;;;;5.40;2.80;;;;;;;26.94;38.58;98836.63;5008951;28;20032;-96
2023/06/13 09:54:16;;;;;;;3.85;2.30;;;;;;;27.01;37.75;98830.31;5009894;28;20111;-95
2023/06/13 09:56:48;;;;;;;4.88;3.15;;;;;;;27.20;36.94;98838.22;5012755;28;20025;-95
2023/06/13 09:59:25;;;;;;;4.15;2.70;;;;;;;27.20;37.78;98829.94;5010853;28;20033;-94
2023/06/13 10:01:50;;;;;;;4.22;3.22;;;;;;;27.15;38.12;98830.31;5010923;28;20037;-94
2023/06/13 10:04:23;;;;;;;6.40;2.78;;;;;;;26.94;37.94;98825.56;5007081;28;20124;-95
2023/06/13 10:07:10;;;;;;;10.85;8.52;;;;;;;27.17;38.26;98847.31;5006556;28;20029;-94
2023/06/13 10:09:35;;;;;;;9.32;4.85;;;;;;;26.66;39.14;98819.97;5007685;28;20037;-93
2023/06/13 10:12:01;;;;;;;5.32;3.72;;;;;;;26.72;39.18;98835.78;5025754;28;20025;-92
2023/06/13 10:14:26;;;;;;;3.83;2.17;;;;;;;26.69;38.83;98860.63;5027812;28;20028;-94
2023/06/13 10:17:31;;;;;;;2.92;2.55;;;;;;;26.93;38.28;98853.59;5026987;28;20032;-92
2023/06/13 10:20:08;;;;;;;9.18;3.25;;;;;;;26.64;39.53;98822.34;5008284;28;20189;-91
2023/06/13 10:22:38;;;;;;;4.55;2.53;;;;;;;26.65;38.99;98848.78;5003416;28;20017;-92
2023/06/13 10:25:06;;;;;;;3.55;2.30;;;;;;;26.49;38.85;98844.34;5024887;28;20135;-92
2023/06/13 10:27:31;;;;;;;6.35;4.00;;;;;;;26.22;39.29;98830.03;5031903;28;20108;-95
2023/06/13 10:30:29;;;;;;;4.10;2.35;;;;;;;26.18;39.08;98830.00;5034129;28;20029;-95
2023/06/13 10:33:19;;;;;;;5.88;2.33;;;;;;;26.33;39.42;98850.19;5051303;28;20048;-95
2023/06/13 10:36:16;;;;;;;3.83;2.55;;;;;;;26.02;39.78;98832.28;5069577;28;20102;-96
2023/06/13 10:38:48;;;;;;;5.53;4.05;;;;;;;26.13;39.75;98843.41;5044464;28;20037;-96
2023/06/13 10:41:38;;;;;;;5.63;3.22;;;;;;;26.05;39.97;98847.31;5029682;28;20087;-96
2023/06/13 10:44:32;;;;;;;4.80;3.25;;;;;;;26.10;38.98;98847.69;5048544;28;20025;-89
2023/06/13 10:47:00;;;;;;;6.47;2.92;;;;;;;25.73;39.39;98815.56;5056536;28;20036;-89
2023/06/13 10:49:37;;;;;;;6.35;3.22;;;;;;;25.90;38.81;98825.16;5030961;28;20115;-88
2023/06/13 10:52:03;;;;;;;3.72;2.40;;;;;;;26.08;39.18;98830.75;5026857;28;20213;-89
2023/06/13 10:54:29;;;;;;;7.38;2.78;;;;;;;26.24;39.04;98819.41;5018180;28;20008;-89
2023/06/13 10:57:00;;;;;;;5.05;2.97;;;;;;;26.48;38.99;98836.44;5031387;28;20036;-92
2023/06/13 10:59:33;;;;;;;4.65;3.30;;;;;;;26.41;39.11;98810.38;5022923;28;20036;-86
2023/06/13 11:01:59;;;;;;;3.85;2.40;;;;;;;26.52;38.44;98815.16;5053351;28;20111;-87
2023/06/13 11:04:25;;;;;;;6.82;2.30;;;;;;;26.65;38.51;98827.47;5046682;28;20094;-87
2023/06/13 11:07:37;;;;;;;10.85;4.60;;;;;;;26.76;38.79;98822.75;5022257;28;20453;-88
2023/06/13 11:10:49;;;;;;;;;;;;;;;;;;;;;
2023/06/13 11:17:11;;;;;;;3.30;2.15;;;;;;;26.53;36.99;98811.22;5067480;28;20025;-95
2023/06/13 11:19:39;;;;;;;4.25;2.08;;;;;;;26.28;37.11;98808.38;5071771;28;20024;-96
2023/06/13 11:22:05;;;;;;;3.72;2.40;;;;;;;26.36;38.50;98816.28;5032238;28;20068;-94
2023/06/13 11:24:34;;;;;;;10.43;2.85;;;;;;;26.69;38.48;98806.19;5073244;28;20457;-93
2023/06/13 11:27:09;;;;;;;6.50;5.45;;;;;;;26.93;38.14;98817.66;5020771;28;20032;-95
2023/06/13 11:29:38;;;;;;;8.15;5.85;;;;;;;26.49;38.13;98791.88;5023311;28;20036;-94
2023/06/13 11:32:13;;;;;;;3.25;2.30;;;;;;;26.38;38.91;98794.63;5020731;28;20041;-90
2023/06/13 11:34:41;;;;;;;3.15;2.20;;;;;;;26.47;38.46;98782.41;5032479;28;20033;-89
2023/06/13 11:37:56;;;;;;;;;;;;;;;;;;;;;
2023/06/13 11:40:26;;;;;;;7.07;2.50;;;;;;;26.55;38.57;98781.25;5054732;28;20101;-88
2023/06/13 11:42:55;;;;;;;5.85;2.78;;;;;;;26.46;39.33;98767.81;5016553;28;20024;-92
2023/06/13 11:45:22;;;;;;;8.27;6.38;;;;;;;26.51;39.42;98780.47;5044014;28;20101;-91
2023/06/13 11:48:22;;;;;;;4.20;2.30;;;;;;;26.87;38.66;98808.97;5028091;28;20038;-91
2023/06/13 11:51:33;;;;;;;5.93;2.50;;;;;;;27.07;37.62;98801.09;5062721;28;20033;-89
2023/06/13 11:54:00;;;;;;;2.42;1.95;;;;;;;26.98;36.83;98784.91;5026642;28;20045;-87